Time;durP1;ratioP1;P1;durP2;ratioP2;P2;SDS_P1;SDS_P2;PMS_P1;PMS_P2;Temp;Humidity;BMP_temperature;BMP_pressure;BME280_temperature;BME280_humidity;BME280_pressure;Samples;Min_cycle;Max_cycle;Signal;HPM_P1;HPM_P2
2021/11/02 00:02:07;;;;;;;3.53;0.40;;;9.50;70.10;;;;;;5072717;28;20032;-80
2021/11/02 00:04:34;;;;;;;0.50;0.40;;;9.50;70.30;;;;;;5069174;28;20048;-80
2021/11/02 00:07:00;;;;;;;1.57;0.50;;;9.50;71.00;;;;;;5087647;28;20034;-80
2021/11/02 00:09:28;;;;;;;3.93;0.80;;;9.50;70.30;;;;;;5074056;28;20028;-80
2021/11/02 00:11:54;;;;;;;1.70;0.50;;;9.40;70.40;;;;;;5088425;28;20058;-80
2021/11/02 00:14:22;;;;;;;1.67;0.57;;;9.50;70.50;;;;;;5095114;28;20085;-80
2021/11/02 00:16:54;;;;;;;2.87;0.70;;;9.60;70.50;;;;;;5082311;28;20059;-80
2021/11/02 00:19:20;;;;;;;0.55;0.40;;;9.50;70.30;;;;;;5084228;28;20032;-80
2021/11/02 00:21:48;;;;;;;0.73;0.40;;;9.60;70.30;;;;;;5076129;28;20042;-79
2021/11/02 00:24:17;;;;;;;1.57;0.70;;;9.50;70.50;;;;;;5095253;28;20028;-79
2021/11/02 00:26:43;;;;;;;1.60;0.70;;;9.60;70.60;;;;;;5076421;28;20119;-80
2021/11/02 00:29:09;;;;;;;1.03;0.40;;;9.60;70.60;;;;;;5098610;28;20429;-80
2021/11/02 00:31:35;;;;;;;1.03;0.40;;;9.60;71.00;;;;;;5076674;28;20131;-80
2021/11/02 00:34:02;;;;;;;2.97;0.57;;;9.50;70.40;;;;;;5077105;28;20061;-80
2021/11/02 00:36:27;;;;;;;1.13;0.43;;;9.50;70.70;;;;;;5097558;28;20532;-79
2021/11/02 00:38:53;;;;;;;2.70;0.40;;;9.50;70.80;;;;;;5079169;28;20032;-80
2021/11/02 00:41:19;;;;;;;2.00;0.60;;;9.50;70.80;;;;;;5094634;28;20020;-80
2021/11/02 00:43:47;;;;;;;0.97;0.37;;;9.40;70.90;;;;;;5074347;28;20629;-80
2021/11/02 00:46:13;;;;;;;0.70;0.47;;;9.50;70.80;;;;;;5057378;28;20166;-80
2021/11/02 00:48:38;;;;;;;1.37;0.40;;;9.50;70.90;;;;;;5076585;28;20144;-80
2021/11/02 00:51:05;;;;;;;2.57;0.50;;;9.50;70.80;;;;;;5070548;28;20082;-80
2021/11/02 00:53:31;;;;;;;0.77;0.40;;;9.50;70.70;;;;;;5064051;28;20024;-80
2021/11/02 00:55:57;;;;;;;0.60;0.50;;;9.50;70.70;;;;;;5051541;28;20028;-80
2021/11/02 00:58:25;;;;;;;0.73;0.53;;;9.50;70.70;;;;;;5069811;28;20032;-80
2021/11/02 01:00:52;;;;;;;0.93;0.80;;;9.50;70.70;;;;;;5057797;28;20039;-81
2021/11/02 01:03:19;;;;;;;1.23;0.70;;;9.50;70.60;;;;;;5053358;28;20067;-81
2021/11/02 01:05:44;;;;;;;1.27;0.70;;;9.40;70.50;;;;;;5071033;28;20036;-80
2021/11/02 01:08:10;;;;;;;1.90;0.87;;;9.40;70.80;;;;;;5053794;28;20021;-80
2021/11/02 01:10:36;;;;;;;1.57;1.07;;;9.40;70.80;;;;;;5072839;28;20020;-81
2021/11/02 01:13:02;;;;;;;2.80;1.27;;;9.40;70.60;;;;;;5059060;28;20020;-80
2021/11/02 01:15:31;;;;;;;3.93;1.10;;;9.40;70.70;;;;;;5054912;28;20533;-80
2021/11/02 01:17:57;;;;;;;1.73;1.20;;;9.30;70.80;;;;;;5055760;28;20514;-80
2021/11/02 01:20:23;;;;;;;4.53;1.40;;;9.30;70.90;;;;;;5074089;28;20028;-80
2021/11/02 01:22:50;;;;;;;1.73;1.47;;;9.30;70.70;;;;;;5072649;28;20371;-80
2021/11/02 01:25:16;;;;;;;1.97;1.20;;;9.40;70.70;;;;;;5055820;28;20369;-80
2021/11/02 01:27:43;;;;;;;1.20;1.03;;;9.40;70.90;;;;;;5051718;28;20040;-80
2021/11/02 01:30:10;;;;;;;1.63;0.77;;;9.30;70.70;;;;;;5074331;28;20032;-81
2021/11/02 01:32:36;;;;;;;2.60;1.07;;;9.20;70.70;;;;;;5050971;28;20077;-80
2021/11/02 01:35:02;;;;;;;1.13;0.90;;;9.20;70.90;;;;;;5037314;28;20400;-80
2021/11/02 01:37:30;;;;;;;1.77;1.00;;;9.20;71.00;;;;;;5052793;28;20093;-80
2021/11/02 01:39:57;;;;;;;1.83;0.87;;;9.10;71.00;;;;;;5049673;28;20464;-81
2021/11/02 01:42:25;;;;;;;2.10;0.93;;;9.20;70.90;;;;;;5057406;28;20028;-80
2021/11/02 01:44:53;;;;;;;1.30;1.07;;;9.20;70.70;;;;;;5069207;28;20069;-80
2021/11/02 01:47:20;;;;;;;1.37;0.87;;;9.20;70.70;;;;;;5076986;28;20047;-80
2021/11/02 01:49:47;;;;;;;1.20;0.57;;;9.20;70.80;;;;;;5071869;28;20031;-80
2021/11/02 01:52:13;;;;;;;0.90;0.60;;;9.20;70.70;;;;;;5064162;28;20524;-81
2021/11/02 01:54:39;;;;;;;1.10;0.73;;;9.20;70.50;;;;;;5091044;28;20024;-81
2021/11/02 01:57:06;;;;;;;3.13;0.50;;;9.20;70.60;;;;;;5076282;28;20406;-81
2021/11/02 01:59:34;;;;;;;1.30;0.80;;;9.00;70.50;;;;;;5070953;28;20081;-81
2021/11/02 02:02:08;;;;;;;0.93;0.80;;;9.00;71.00;;;;;;5075195;28;20467;-80
2021/11/02 02:05:15;;;;;;;2.03;1.03;;;8.90;70.90;;;;;;5072193;28;20046;-80
2021/11/02 02:08:02;;;;;;;1.93;1.20;;;9.00;71.20;;;;;;5068624;28;20036;-81
2021/11/02 02:10:37;;;;;;;2.17;1.10;;;9.00;71.00;;;;;;5088131;28;20028;-80
2021/11/02 02:13:21;;;;;;;1.17;1.00;;;8.90;71.00;;;;;;5078101;28;20027;-81
2021/11/02 02:15:55;;;;;;;1.27;1.17;;;9.00;71.30;;;;;;5088836;28;20028;-81
2021/11/02 02:18:38;;;;;;;2.43;1.23;;;9.00;71.00;;;;;;5094871;28;20378;-81
2021/11/02 02:21:10;;;;;;;2.30;1.30;;;9.00;71.10;;;;;;5090337;28;20039;-80
2021/11/02 02:24:14;;;;;;;1.27;1.17;;;9.00;70.70;;;;;;5071585;28;20063;-81
2021/11/02 02:26:58;;;;;;;;;;;9.10;70.70;;;;;;5049243;28;20032;-81
2021/11/02 02:29:25;;;;;;;2.20;1.30;;;9.00;70.60;;;;;;5098574;28;19991;-81
2021/11/02 02:31:54;;;;;;;1.53;1.20;;;9.10;70.60;;;;;;5091918;28;20025;-81
2021/11/02 02:34:22;;;;;;;1.60;1.23;;;9.10;70.50;;;;;;5076924;28;20474;-81
2021/11/02 02:36:51;;;;;;;1.77;1.20;;;9.10;70.40;;;;;;5086924;28;20016;-81
2021/11/02 02:39:18;;;;;;;1.30;1.20;;;9.10;70.30;;;;;;5075776;28;20059;-81
2021/11/02 02:41:45;;;;;;;1.77;1.20;;;9.00;70.40;;;;;;5092298;28;20548;-81
2021/11/02 02:44:13;;;;;;;1.37;1.20;;;9.10;70.40;;;;;;5092552;28;20052;-81
2021/11/02 02:46:39;;;;;;;1.80;1.50;;;9.10;70.30;;;;;;5076863;28;20035;-81
2021/11/02 02:49:08;;;;;;;2.30;1.43;;;9.00;70.60;;;;;;5088685;28;20023;-81
2021/11/02 02:51:35;;;;;;;2.63;1.17;;;9.10;70.40;;;;;;5065410;28;20032;-80
2021/11/02 02:54:02;;;;;;;1.73;0.93;;;9.10;70.50;;;;;;5075732;28;20362;-81
2021/11/02 02:56:29;;;;;;;1.77;1.20;;;9.10;70.60;;;;;;5071449;28;20040;-81
2021/11/02 02:59:00;;;;;;;3.03;1.33;;;9.10;70.70;;;;;;5070496;28;20028;-80
2021/11/02 03:01:27;;;;;;;1.53;1.00;;;9.10;70.90;;;;;;5071358;28;20103;-80
2021/11/02 03:04:02;;;;;;;1.97;1.10;;;9.00;71.60;;;;;;5093103;28;20036;-81
2021/11/02 03:06:31;;;;;;;0.90;0.77;;;9.00;71.10;;;;;;5086600;28;20415;-80
2021/11/02 03:08:58;;;;;;;1.17;0.97;;;8.90;71.30;;;;;;5077477;28;20028;-81
2021/11/02 03:11:27;;;;;;;1.10;1.00;;;8.90;71.40;;;;;;5068779;28;20388;-81
2021/11/02 03:13:56;;;;;;;1.47;0.90;;;9.00;71.40;;;;;;5091526;28;20023;-81
2021/11/02 03:16:39;;;;;;;2.20;0.93;;;9.00;71.20;;;;;;5097733;28;20079;-80
2021/11/02 03:50:41;;;;;;;3.87;2.20;;;8.80;71.70;;;;;;5069899;28;20044;-81
2021/11/02 04:32:21;;;;;;;5.80;2.80;;;8.90;71.30;;;;;;5070837;28;20078;-81
2021/11/02 04:35:04;;;;;;;3.50;3.10;;;8.90;71.60;;;;;;5072097;28;20502;-81
2021/11/02 05:59:44;;;;;;;4.80;3.97;;;8.90;71.70;;;;;;5068756;28;20029;-80
2021/11/02 06:29:31;;;;;;;7.43;5.33;;;8.80;72.20;;;;;;5068876;28;20043;-81
2021/11/02 06:32:05;;;;;;;9.87;5.07;;;8.80;72.00;;;;;;5068319;28;20440;-81
2021/11/02 06:54:09;;;;;;;12.02;8.02;;;9.00;72.20;;;;;;5066825;28;20109;-81
2021/11/02 07:19:16;;;;;;;11.33;9.40;;;9.00;72.00;;;;;;5064068;28;20395;-81
2021/11/02 07:24:50;;;;;;;12.10;9.13;;;9.00;72.00;;;;;;5070608;28;19919;-81
2021/11/02 07:27:33;;;;;;;15.13;11.33;;;9.00;71.50;;;;;;5053583;28;20440;-81
2021/11/02 08:46:12;;;;;;;7.77;6.23;;;9.20;70.10;;;;;;5083967;28;20059;-80
2021/11/02 08:48:38;;;;;;;11.10;7.33;;;9.10;70.40;;;;;;5080044;28;20075;-80
2021/11/02 08:51:04;;;;;;;8.53;7.30;;;9.20;70.90;;;;;;5081994;28;20023;-81
2021/11/02 08:53:30;;;;;;;9.80;7.07;;;9.30;70.90;;;;;;5076398;28;20031;-81
2021/11/02 08:55:56;;;;;;;8.47;7.23;;;9.40;70.60;;;;;;5074583;28;20020;-81
2021/11/02 08:58:28;;;;;;;19.37;8.17;;;9.40;70.40;;;;;;5100148;28;20012;-81
2021/11/02 09:00:55;;;;;;;11.70;7.67;;;9.50;70.50;;;;;;5076416;28;20621;-81
2021/11/02 09:03:23;;;;;;;10.47;8.30;;;9.50;70.40;;;;;;5075304;28;20091;-81
2021/11/02 09:05:57;;;;;;;7.83;6.77;;;9.60;70.30;;;;;;5073037;28;20024;-81
2021/11/02 09:08:24;;;;;;;8.80;6.57;;;9.70;70.20;;;;;;5069294;28;20024;-81
2021/11/02 09:10:50;;;;;;;7.53;6.80;;;9.80;69.90;;;;;;5089082;28;20036;-81
2021/11/02 09:13:17;;;;;;;6.60;5.90;;;9.70;69.40;;;;;;5080358;28;20024;-80
2021/11/02 09:15:47;;;;;;;6.30;5.70;;;9.70;69.70;;;;;;5081152;28;20039;-81
2021/11/02 09:18:13;;;;;;;6.70;5.87;;;9.70;69.90;;;;;;5082021;28;20111;-81
2021/11/02 09:20:40;;;;;;;6.70;5.37;;;9.80;69.60;;;;;;5089568;28;20485;-81
2021/11/02 09:23:07;;;;;;;6.60;5.73;;;9.70;69.00;;;;;;5096726;28;20490;-81
2021/11/02 09:25:33;;;;;;;6.53;5.70;;;9.70;69.50;;;;;;5076352;28;20454;-81
2021/11/02 09:27:59;;;;;;;7.30;6.30;;;9.80;69.60;;;;;;5081586;28;20040;-81
2021/11/02 09:30:26;;;;;;;7.50;6.43;;;9.70;69.30;;;;;;5079215;28;20026;-81
2021/11/02 09:32:55;;;;;;;8.23;6.70;;;9.70;69.60;;;;;;5103881;28;20034;-81
2021/11/02 09:35:23;;;;;;;8.80;6.33;;;9.90;69.70;;;;;;5074689;28;20418;-81
2021/11/02 09:38:22;;;;;;;8.27;6.10;;;10.00;69.40;;;;;;5074933;28;20442;-81
2021/11/02 09:41:27;;;;;;;7.63;6.83;;;9.90;68.80;;;;;;5090376;28;20028;-81
2021/11/02 09:44:11;;;;;;;11.07;6.30;;;9.80;69.00;;;;;;5092065;28;20052;-81
2021/11/02 09:46:57;;;;;;;7.63;5.83;;;9.90;68.90;;;;;;5076178;28;20077;-81
2021/11/02 09:49:44;;;;;;;7.37;5.23;;;9.90;69.00;;;;;;5069820;28;20035;-81
2021/11/02 09:52:32;;;;;;;6.50;5.37;;;10.10;69.50;;;;;;5075329;28;20024;-81
2021/11/02 09:55:16;;;;;;;7.23;5.83;;;10.20;69.00;;;;;;5104669;28;20020;-81
2021/11/02 09:57:56;;;;;;;10.77;5.30;;;10.40;69.00;;;;;;5072559;28;20051;-81
2021/11/02 10:00:43;;;;;;;11.10;4.80;;;10.60;69.30;;;;;;5086388;28;20730;-82
2021/11/02 10:03:41;;;;;;;10.23;4.83;;;10.80;68.40;;;;;;5070698;28;20482;-81
2021/11/02 10:06:36;;;;;;;7.87;5.57;;;11.00;68.20;;;;;;5076392;28;20809;-81
2021/11/02 10:09:28;;;;;;;7.20;5.47;;;10.90;67.60;;;;;;5070697;28;20231;-81
2021/11/02 10:12:05;;;;;;;5.90;5.30;;;10.90;68.00;;;;;;5065422;28;20123;-81
2021/11/02 10:14:44;;;;;;;6.20;4.93;;;10.80;67.60;;;;;;5088627;28;20056;-82
2021/11/02 10:17:30;;;;;;;8.70;5.87;;;10.80;67.70;;;;;;5066838;28;20032;-82
2021/11/02 10:20:04;;;;;;;6.00;5.40;;;10.90;67.30;;;;;;5102785;28;20043;-81
2021/11/02 10:23:02;;;;;;;9.13;5.40;;;10.90;67.10;;;;;;5092174;28;20032;-81
2021/11/02 10:26:20;;;;;;;7.67;5.80;;;10.90;67.20;;;;;;5103981;28;20738;-81
2021/11/02 10:29:20;;;;;;;6.47;5.87;;;11.00;66.90;;;;;;5085623;28;20051;-81
2021/11/02 10:31:58;;;;;;;10.13;5.40;;;10.90;66.80;;;;;;5090533;28;20051;-81
2021/11/02 10:34:42;;;;;;;7.20;5.30;;;11.00;67.30;;;;;;5094264;28;20103;-81
2021/11/02 10:37:35;;;;;;;5.23;4.73;;;11.20;67.10;;;;;;5091084;28;20395;-82
2021/11/02 10:40:18;;;;;;;6.27;4.80;;;11.60;66.70;;;;;;5088799;28;20484;-82
2021/11/02 10:42:53;;;;;;;6.18;4.35;;;12.00;66.40;;;;;;5071544;28;20484;-82
2021/11/02 10:45:23;;;;;;;5.10;4.60;;;12.30;65.40;;;;;;5078605;28;20043;-82
2021/11/02 10:48:28;;;;;;;4.87;4.40;;;12.10;64.40;;;;;;5065818;28;20372;-82
2021/11/02 10:51:03;;;;;;;8.27;5.13;;;12.20;65.50;;;;;;5028095;28;20129;-82
2021/11/02 10:53:38;;;;;;;4.30;3.83;;;12.30;64.90;;;;;;5078318;28;20024;-81
2021/11/02 10:56:35;;;;;;;4.87;4.27;;;12.70;64.60;;;;;;5054349;28;20048;-82
2021/11/02 10:59:05;;;;;;;8.03;3.73;;;13.00;64.00;;;;;;5058153;28;20021;-82
2021/11/02 11:01:32;;;;;;;6.73;3.83;;;13.30;63.40;;;;;;5061769;28;20067;-81
2021/11/02 11:04:00;;;;;;;4.37;3.87;;;13.40;62.70;;;;;;5074048;28;20111;-81
2021/11/02 11:06:29;;;;;;;4.43;4.00;;;13.50;62.30;;;;;;5050997;28;20042;-81
2021/11/02 11:08:57;;;;;;;6.33;5.23;;;13.60;61.80;;;;;;5066739;28;20690;-82
2021/11/02 11:11:30;;;;;;;5.10;3.60;;;13.70;61.60;;;;;;5051749;28;20112;-81
2021/11/02 11:14:07;;;;;;;4.33;3.70;;;14.00;61.20;;;;;;5064618;28;20035;-82
2021/11/02 11:16:41;;;;;;;4.60;4.17;;;14.10;60.10;;;;;;5072660;28;20043;-82
2021/11/02 11:19:28;;;;;;;4.57;3.80;;;14.10;59.80;;;;;;5070457;28;20036;-82
2021/11/02 11:21:55;;;;;;;4.87;3.83;;;14.20;59.30;;;;;;5073298;28;20049;-82
2021/11/02 11:24:33;;;;;;;3.80;3.40;;;14.00;59.40;;;;;;5071943;28;20028;-82
2021/11/02 11:27:07;;;;;;;5.77;4.60;;;13.90;59.80;;;;;;5052750;28;20027;-81
2021/11/02 11:29:44;;;;;;;7.77;3.80;;;14.10;59.40;;;;;;5052300;28;20031;-82
2021/11/02 11:32:14;;;;;;;6.60;4.73;;;14.20;59.00;;;;;;5060636;28;20082;-82
2021/11/02 11:34:42;;;;;;;3.70;3.40;;;14.10;58.30;;;;;;5053429;28;20683;-82
2021/11/02 11:37:13;;;;;;;4.87;4.17;;;14.20;58.60;;;;;;5069023;28;20444;-82
2021/11/02 11:39:41;;;;;;;3.70;3.40;;;14.20;57.90;;;;;;5061172;28;20558;-82
2021/11/02 11:42:08;;;;;;;4.67;4.10;;;14.20;58.10;;;;;;5068881;28;20028;-81
2021/11/02 11:44:33;;;;;;;6.20;4.03;;;14.20;57.90;;;;;;5063866;28;20091;-82
2021/11/02 11:47:08;;;;;;;4.93;4.23;;;14.20;58.20;;;;;;5098149;28;20074;-81
2021/11/02 11:49:35;;;;;;;5.93;3.80;;;14.30;58.10;;;;;;5073437;28;20028;-81
2021/11/02 11:52:03;;;;;;;5.47;3.97;;;14.20;57.80;;;;;;5092014;28;20036;-81
2021/11/02 11:54:49;;;;;;;4.33;3.93;;;14.00;58.00;;;;;;5065829;28;20454;-81
2021/11/02 11:57:27;;;;;;;8.03;4.53;;;13.70;58.10;;;;;;5072798;28;20031;-81
2021/11/02 11:59:58;;;;;;;6.57;4.23;;;13.50;58.60;;;;;;5073329;28;20043;-81
2021/11/02 12:02:32;;;;;;;6.27;4.23;;;13.40;59.00;;;;;;5071864;28;20054;-81
2021/11/02 12:05:17;;;;;;;6.00;4.87;;;13.30;59.10;;;;;;5102145;28;20474;-81
2021/11/02 12:08:04;;;;;;;6.90;5.00;;;13.10;59.40;;;;;;5065924;28;20032;-81
2021/11/02 12:10:30;;;;;;;5.50;4.47;;;13.10;59.60;;;;;;5070759;28;20033;-81
2021/11/02 12:12:56;;;;;;;6.97;4.00;;;13.00;59.40;;;;;;5072173;28;20118;-81
2021/11/02 12:15:23;;;;;;;4.90;4.50;;;12.70;59.70;;;;;;5069129;28;20059;-81
2021/11/02 12:17:52;;;;;;;7.53;4.47;;;12.60;60.30;;;;;;5083202;28;20053;-81
2021/11/02 12:20:21;;;;;;;4.30;3.50;;;12.60;60.40;;;;;;5100822;28;20682;-81
2021/11/02 12:22:52;;;;;;;4.20;3.80;;;12.50;60.70;;;;;;5076829;28;20047;-82
2021/11/02 12:25:25;;;;;;;6.20;3.93;;;12.50;60.50;;;;;;5062439;28;20028;-81
2021/11/02 12:27:56;;;;;;;4.97;3.80;;;12.50;60.70;;;;;;5087685;28;20036;-81
2021/11/02 12:30:22;;;;;;;5.47;4.30;;;12.30;60.80;;;;;;5076252;28;20032;-81
2021/11/02 12:32:55;;;;;;;5.67;4.77;;;12.30;61.20;;;;;;5065293;28;20077;-81
2021/11/02 12:35:39;;;;;;;4.67;4.20;;;12.20;61.20;;;;;;5088678;28;20353;-81
2021/11/02 12:38:06;;;;;;;6.37;4.43;;;12.00;61.50;;;;;;5072591;28;20028;-80
2021/11/02 12:40:38;;;;;;;6.33;4.10;;;11.90;62.00;;;;;;5094202;28;20046;-81
2021/11/02 12:43:04;;;;;;;5.77;4.67;;;11.80;62.30;;;;;;5082864;28;20028;-80
2021/11/02 12:45:43;;;;;;;7.40;4.67;;;11.90;62.60;;;;;;5048136;28;20488;-81
2021/11/02 12:48:11;;;;;;;6.37;4.03;;;11.90;62.30;;;;;;5045619;28;20043;-80
2021/11/02 12:50:39;;;;;;;6.97;4.80;;;11.70;62.70;;;;;;5051591;28;20034;-81
2021/11/02 12:53:05;;;;;;;5.90;4.50;;;11.80;62.60;;;;;;5062538;28;20071;-81
2021/11/02 12:55:33;;;;;;;7.03;4.23;;;11.60;62.80;;;;;;5048862;28;20040;-81
2021/11/02 12:58:16;;;;;;;5.20;4.70;;;11.60;63.10;;;;;;5068783;28;20040;-81
2021/11/02 13:00:44;;;;;;;5.57;4.82;;;11.50;63.30;;;;;;5069808;28;20033;-81
2021/11/02 13:03:21;;;;;;;6.60;4.83;;;11.30;63.40;;;;;;5047777;28;20067;-81
2021/11/02 13:06:08;;;;;;;6.70;4.70;;;11.40;63.90;;;;;;5045183;28;20048;-81
2021/11/02 13:08:42;;;;;;;6.40;4.37;;;11.40;64.10;;;;;;5061966;28;20067;-81
2021/11/02 13:11:12;;;;;;;4.83;3.67;;;11.40;64.10;;;;;;5048238;28;20821;-81
2021/11/02 13:14:01;;;;;;;5.40;3.97;;;11.40;63.90;;;;;;5048748;28;20035;-81
2021/11/02 13:16:51;;;;;;;4.97;3.83;;;11.50;64.10;;;;;;5067612;28;20036;-81
2021/11/02 13:19:16;;;;;;;6.13;4.67;;;11.50;64.00;;;;;;5037991;28;20037;-81
2021/11/02 13:21:48;;;;;;;6.20;4.17;;;11.50;64.00;;;;;;5048665;28;20556;-81
2021/11/02 13:24:17;;;;;;;6.97;3.97;;;11.60;64.50;;;;;;5068175;28;20025;-81
2021/11/02 13:26:45;;;;;;;5.90;4.40;;;11.60;64.70;;;;;;5066730;28;20031;-81
2021/11/02 13:29:16;;;;;;;5.87;4.40;;;11.70;64.70;;;;;;5045739;28;20452;-81
2021/11/02 13:31:46;;;;;;;7.47;4.57;;;11.80;64.70;;;;;;5066214;28;20020;-81
2021/11/02 13:34:17;;;;;;;4.80;4.20;;;11.80;64.40;;;;;;5068450;28;20040;-81
2021/11/02 13:36:44;;;;;;;8.13;4.20;;;11.70;64.50;;;;;;5053331;28;20032;-81
2021/11/02 13:39:11;;;;;;;6.77;5.63;;;11.70;64.50;;;;;;5060316;28;20036;-81
2021/11/02 13:41:46;;;;;;;5.47;4.60;;;11.70;64.60;;;;;;5072397;28;20359;-81
2021/11/02 13:44:14;;;;;;;7.93;5.00;;;11.80;64.50;;;;;;5049471;28;20052;-81
2021/11/02 13:46:59;;;;;;;5.93;4.77;;;11.80;64.60;;;;;;5057113;28;20032;-81
2021/11/02 13:49:25;;;;;;;4.77;4.03;;;11.80;64.80;;;;;;5068270;28;20854;-81
2021/11/02 13:51:51;;;;;;;7.17;4.63;;;11.80;64.80;;;;;;5087905;28;20023;-81
2021/11/02 13:54:18;;;;;;;4.60;4.00;;;11.80;64.50;;;;;;5070038;28;20425;-81
2021/11/02 13:56:46;;;;;;;8.07;6.03;;;11.80;64.50;;;;;;5076180;28;20032;-81
2021/11/02 13:59:14;;;;;;;6.97;4.53;;;11.70;64.60;;;;;;5064234;28;20078;-81
2021/11/02 14:01:47;;;;;;;9.83;6.23;;;11.80;64.40;;;;;;5053484;28;20537;-81
2021/11/02 14:04:27;;;;;;;7.80;6.00;;;11.80;64.50;;;;;;5071989;28;20024;-81
2021/11/02 14:07:01;;;;;;;6.70;5.10;;;11.90;64.60;;;;;;5070739;28;20074;-81
2021/11/02 14:09:28;;;;;;;6.40;5.47;;;12.10;64.50;;;;;;5066573;28;20047;-81
2021/11/02 14:11:55;;;;;;;6.87;4.60;;;12.20;64.10;;;;;;5055022;28;20033;-81
2021/11/02 14:14:36;;;;;;;10.50;4.23;;;12.20;63.90;;;;;;5083932;28;20428;-81
2021/11/02 14:17:18;;;;;;;4.63;4.03;;;12.30;63.90;;;;;;5056889;28;20029;-81
2021/11/02 14:19:48;;;;;;;5.57;4.20;;;12.20;63.80;;;;;;5064980;28;20029;-81
2021/11/02 14:22:34;;;;;;;7.00;4.13;;;12.30;63.80;;;;;;5075711;28;20123;-82
2021/11/02 14:25:12;;;;;;;4.50;3.30;;;12.30;63.70;;;;;;5050880;28;20029;-81
2021/11/02 14:27:46;;;;;;;5.43;4.30;;;12.40;63.40;;;;;;5057719;28;20460;-81
2021/11/02 14:30:35;;;;;;;6.93;4.30;;;12.40;63.40;;;;;;5078140;28;20499;-81
2021/11/02 14:33:11;;;;;;;8.10;5.03;;;12.50;63.40;;;;;;5054016;28;20369;-82
2021/11/02 14:35:47;;;;;;;8.57;5.07;;;12.50;63.10;;;;;;5071333;28;20029;-81
2021/11/02 14:38:24;;;;;;;6.17;3.77;;;12.50;63.20;;;;;;5075282;28;20044;-81
2021/11/02 14:40:53;;;;;;;7.97;4.17;;;12.50;63.10;;;;;;5054333;28;20694;-81
2021/11/02 14:43:22;;;;;;;6.07;4.97;;;12.60;63.10;;;;;;5083094;28;20024;-81
2021/11/02 14:46:18;;;;;;;7.53;4.47;;;12.60;63.00;;;;;;5096983;28;20071;-81
2021/11/02 14:48:48;;;;;;;5.23;4.40;;;12.50;63.10;;;;;;5094318;28;20290;-81
2021/11/02 14:51:17;;;;;;;7.50;5.90;;;12.50;63.20;;;;;;5082688;28;20032;-81
2021/11/02 14:53:44;;;;;;;7.27;5.67;;;12.40;63.30;;;;;;5100394;28;20107;-81
2021/11/02 14:56:33;;;;;;;6.90;4.87;;;12.40;63.30;;;;;;5092104;28;20020;-81
2021/11/02 14:59:06;;;;;;;8.17;5.00;;;12.40;63.40;;;;;;5092568;28;20393;-81
2021/11/02 15:01:39;;;;;;;5.67;4.33;;;12.40;63.30;;;;;;5097681;28;20065;-82
2021/11/02 15:04:06;;;;;;;;;;;12.40;63.30;;;;;;5087481;28;20036;-81
2021/11/02 15:06:40;;;;;;;4.50;3.93;;;12.40;63.30;;;;;;5085028;28;19912;-81
2021/11/02 15:09:11;;;;;;;9.73;5.30;;;12.40;63.20;;;;;;5106865;28;20898;-82
2021/11/02 15:11:41;;;;;;;6.47;5.10;;;12.40;63.30;;;;;;5103255;28;20081;-81
2021/11/02 15:14:14;;;;;;;12.73;4.70;;;12.40;63.30;;;;;;5085378;28;20024;-82
2021/11/02 15:16:46;;;;;;;8.77;4.87;;;12.30;63.40;;;;;;5084895;28;20055;-81
2021/11/02 15:19:15;;;;;;;5.27;4.40;;;12.30;63.50;;;;;;5074339;28;20035;-81
2021/11/02 15:21:45;;;;;;;7.83;4.50;;;12.30;63.50;;;;;;5086350;28;20023;-81
2021/11/02 15:24:29;;;;;;;5.73;4.83;;;12.30;63.50;;;;;;5087979;28;20047;-81
2021/11/02 15:27:10;;;;;;;6.63;5.50;;;12.20;63.60;;;;;;5081529;28;20034;-81
2021/11/02 15:29:41;;;;;;;8.53;4.77;;;12.20;63.70;;;;;;5104872;28;20371;-82
2021/11/02 15:32:15;;;;;;;11.93;6.50;;;12.20;63.80;;;;;;5101425;28;20423;-81
2021/11/02 15:34:49;;;;;;;9.17;5.80;;;12.10;64.10;;;;;;5075454;28;20483;-81
2021/11/02 15:37:16;;;;;;;17.47;6.73;;;12.00;64.60;;;;;;5085112;28;20023;-81
2021/11/02 15:39:45;;;;;;;8.63;6.67;;;11.90;64.90;;;;;;5084983;28;20077;-81
2021/11/02 15:42:26;;;;;;;8.63;6.93;;;11.90;65.10;;;;;;5079883;28;20076;-82
2021/11/02 15:44:54;;;;;;;14.60;8.90;;;11.90;65.40;;;;;;5108309;28;20521;-81
2021/11/02 15:47:20;;;;;;;11.30;7.80;;;11.70;65.90;;;;;;5071424;28;20054;-81
2021/11/02 15:50:00;;;;;;;9.83;7.80;;;11.70;66.30;;;;;;5086311;28;20482;-81
2021/11/02 15:52:34;;;;;;;8.97;7.70;;;11.70;66.50;;;;;;5066835;28;20426;-81
2021/11/02 15:55:03;;;;;;;11.60;7.30;;;11.60;66.60;;;;;;5093229;28;20056;-80
2021/11/02 15:57:54;;;;;;;8.40;7.47;;;11.60;66.60;;;;;;5086717;28;20028;-81
2021/11/02 16:00:31;;;;;;;13.97;7.30;;;11.60;66.70;;;;;;5063768;28;20067;-81
2021/11/02 16:02:58;;;;;;;9.43;7.47;;;11.60;66.90;;;;;;5066076;28;20039;-81
2021/11/02 16:05:26;;;;;;;8.97;7.33;;;11.50;67.00;;;;;;5091571;28;20154;-81
2021/11/02 16:07:56;;;;;;;9.90;7.80;;;11.40;67.20;;;;;;5065403;28;20027;-81
2021/11/02 16:10:28;;;;;;;10.33;7.97;;;11.40;67.30;;;;;;5068415;28;20054;-81
2021/11/02 16:12:55;;;;;;;9.67;8.33;;;11.20;67.90;;;;;;5080412;28;20557;-81
2021/11/02 16:15:28;;;;;;;10.37;8.07;;;11.20;68.00;;;;;;5081742;28;20035;-81
2021/11/02 16:18:03;;;;;;;8.13;7.27;;;11.10;68.20;;;;;;5071644;28;20063;-81
2021/11/02 16:20:36;;;;;;;9.43;7.57;;;11.00;68.30;;;;;;5087592;28;20434;-81
2021/11/02 16:23:09;;;;;;;11.18;8.30;;;10.90;68.30;;;;;;5069895;28;20046;-81
2021/11/02 16:25:40;;;;;;;12.40;9.93;;;10.90;68.40;;;;;;5091281;28;20139;-81
2021/11/02 16:28:16;;;;;;;12.83;10.77;;;10.90;68.50;;;;;;5096615;28;20031;-81
2021/11/02 16:30:49;;;;;;;10.27;8.87;;;10.80;68.60;;;;;;5095282;28;20028;-81
2021/11/02 16:33:17;;;;;;;10.30;9.03;;;10.80;68.60;;;;;;5081135;28;20019;-81
2021/11/02 16:35:45;;;;;;;8.47;7.63;;;10.80;68.60;;;;;;5099360;28;20047;-81
2021/11/02 16:38:33;;;;;;;13.80;9.67;;;10.70;68.50;;;;;;5103240;28;20027;-81
2021/11/02 16:41:23;;;;;;;9.23;7.43;;;10.70;68.80;;;;;;5082747;28;20024;-81
2021/11/02 16:44:06;;;;;;;13.47;10.83;;;10.50;68.80;;;;;;5097087;28;20099;-81
2021/11/02 16:46:32;;;;;;;;;;;10.50;69.00;;;;;;5080553;28;20039;-81
2021/11/02 16:49:06;;;;;;;11.93;8.53;;;10.50;69.00;;;;;;5083641;28;19908;-81
2021/11/02 16:51:56;;;;;;;13.80;8.70;;;10.50;68.70;;;;;;5083345;28;20027;-81
2021/11/02 16:54:23;;;;;;;12.40;9.00;;;10.50;68.80;;;;;;5086314;28;20340;-81
2021/11/02 16:57:11;;;;;;;18.37;10.47;;;10.50;68.60;;;;;;5080792;28;20094;-81
2021/11/02 16:59:40;;;;;;;14.63;9.07;;;10.40;68.50;;;;;;5080689;28;20056;-81
2021/11/02 17:02:25;;;;;;;17.37;9.90;;;10.40;68.70;;;;;;5075579;28;20086;-81
2021/11/02 17:05:14;;;;;;;12.17;8.80;;;10.30;68.70;;;;;;5068447;28;20080;-81
2021/11/02 17:07:52;;;;;;;18.73;11.13;;;10.20;68.80;;;;;;5105455;28;20114;-81
2021/11/02 17:10:24;;;;;;;16.90;10.40;;;10.10;69.10;;;;;;5095984;28;20038;-81
2021/11/02 17:13:29;;;;;;;13.95;9.88;;;10.00;69.50;;;;;;5088941;28;20111;-81
2021/11/02 17:15:59;;;;;;;15.67;10.50;;;10.00;69.50;;;;;;5060224;28;20075;-81
2021/11/02 17:18:45;;;;;;;16.93;10.73;;;10.00;69.40;;;;;;5088437;28;20038;-81
2021/11/02 17:21:14;;;;;;;13.70;9.83;;;9.90;69.40;;;;;;5084110;28;20039;-81
2021/11/02 17:23:43;;;;;;;13.83;9.47;;;9.90;69.50;;;;;;5066146;28;20028;-81
2021/11/02 17:26:10;;;;;;;15.97;10.63;;;9.90;69.50;;;;;;5105707;28;20023;-81
2021/11/02 17:28:38;;;;;;;11.80;8.57;;;9.80;69.60;;;;;;5091927;28;20478;-81
2021/11/02 17:31:06;;;;;;;15.47;10.13;;;9.80;69.60;;;;;;5062375;28;20032;-81
2021/11/02 17:33:35;;;;;;;13.77;8.73;;;9.80;69.60;;;;;;5097590;28;20019;-81
2021/11/02 17:36:12;;;;;;;21.83;15.33;;;9.70;69.70;;;;;;5087192;28;20073;-81
2021/11/02 17:38:40;;;;;;;19.10;13.77;;;9.60;69.90;;;;;;5071905;28;20028;-81
2021/11/02 17:41:07;;;;;;;16.00;12.07;;;9.60;70.00;;;;;;5080923;28;20352;-81
2021/11/02 17:43:35;;;;;;;21.80;13.93;;;9.60;70.40;;;;;;5088760;28;20478;-81
2021/11/02 17:46:03;;;;;;;15.50;10.97;;;9.60;70.20;;;;;;5084278;28;20027;-81
2021/11/02 17:48:29;;;;;;;14.10;10.63;;;9.60;70.20;;;;;;5102539;28;20466;-81
2021/11/02 17:50:55;;;;;;;13.40;10.13;;;9.70;70.00;;;;;;5080075;28;20036;-81
2021/11/02 17:53:22;;;;;;;10.77;8.63;;;9.60;69.80;;;;;;5096282;28;20024;-81
2021/11/02 17:55:48;;;;;;;10.60;8.10;;;9.60;70.00;;;;;;5107318;28;20020;-81
2021/11/02 17:58:16;;;;;;;13.83;10.57;;;9.60;70.00;;;;;;5101712;28;20044;-81
2021/11/02 18:00:42;;;;;;;17.77;11.47;;;9.60;69.90;;;;;;5094159;28;20024;-81
2021/11/02 18:03:10;;;;;;;16.53;12.80;;;9.60;69.90;;;;;;5090810;28;20051;-81
2021/11/02 18:05:36;;;;;;;14.93;10.93;;;9.70;70.00;;;;;;5090445;28;20029;-81
2021/11/02 18:08:04;;;;;;;12.00;9.60;;;9.70;70.00;;;;;;5072640;28;20028;-81
2021/11/02 18:10:31;;;;;;;13.30;9.47;;;9.60;70.10;;;;;;5086039;28;20028;-81
2021/11/02 18:12:58;;;;;;;11.83;8.87;;;9.70;70.10;;;;;;5112964;28;20102;-81
2021/11/02 18:15:24;;;;;;;12.23;9.03;;;9.60;69.90;;;;;;5082125;28;20110;-81
2021/11/02 18:17:52;;;;;;;13.47;10.40;;;9.50;70.10;;;;;;5086756;28;20023;-81
2021/11/02 18:20:20;;;;;;;12.60;9.53;;;9.50;70.50;;;;;;5080105;28;20467;-81